Time;durP1;ratioP1;P1;durP2;ratioP2;P2;SDS_P1;SDS_P2;PMS_P1;PMS_P2;Temp;Humidity;BMP_temperature;BMP_pressure;BME280_temperature;BME280_humidity;BME280_pressure;Samples;Min_cycle;Max_cycle;Signal;HPM_P1;HPM_P2
2023/07/26 00:00:23;;;;;;;5.00;2.17;;;;;;;;;;5041373;28;20041;-53
2023/07/26 00:02:50;;;;;;;6.10;2.30;;;;;;;;;;5023428;28;20037;-52
2023/07/26 00:05:17;;;;;;;7.78;2.22;;;;;;;;;;5040926;28;20033;-52
2023/07/26 00:07:43;;;;;;;6.65;2.50;;;;;;;;;;5041164;28;20094;-52
2023/07/26 00:10:10;;;;;;;8.57;2.47;;;;;;;;;;5024931;28;20029;-58
2023/07/26 00:12:37;;;;;;;7.75;3.28;;;;;;;;;;5040307;28;20045;-56
2023/07/26 00:15:12;;;;;;;11.18;3.80;;;;;;;;;;5052249;28;20338;-51
2023/07/26 00:17:42;;;;;;;9.25;4.43;;;;;;;;;;5041664;28;20025;-53
2023/07/26 00:20:10;;;;;;;11.13;4.88;;;;;;;;;;5041629;28;20045;-52
2023/07/26 00:22:37;;;;;;;16.80;5.90;;;;;;;;;;5041727;28;20096;-56
2023/07/26 00:25:03;;;;;;;12.10;5.93;;;;;;;;;;5041562;28;20018;-52
2023/07/26 00:27:30;;;;;;;10.95;5.57;;;;;;;;;;5040773;28;20370;-59
2023/07/26 00:29:57;;;;;;;13.48;5.90;;;;;;;;;;5041528;28;20052;-54
2023/07/26 00:32:23;;;;;;;13.75;6.18;;;;;;;;;;5040073;28;20037;-53
2023/07/26 00:34:50;;;;;;;14.40;6.00;;;;;;;;;;5040631;28;20079;-54
2023/07/26 00:37:17;;;;;;;10.63;4.40;;;;;;;;;;5041238;28;20040;-51
2023/07/26 00:39:44;;;;;;;10.15;3.90;;;;;;;;;;5041000;28;20329;-52
2023/07/26 00:42:11;;;;;;;36.08;4.63;;;;;;;;;;5040803;28;20056;-56
2023/07/26 00:44:38;;;;;;;15.93;3.78;;;;;;;;;;5041276;28;20085;-52
2023/07/26 00:47:05;;;;;;;11.65;3.15;;;;;;;;;;5040560;28;20018;-52
2023/07/26 00:49:32;;;;;;;9.77;2.88;;;;;;;;;;5041379;28;20037;-52
2023/07/26 00:51:59;;;;;;;7.90;2.67;;;;;;;;;;5041423;28;20036;-59
2023/07/26 00:54:28;;;;;;;8.50;2.88;;;;;;;;;;5041233;28;20025;-53
2023/07/26 00:56:54;;;;;;;7.50;4.03;;;;;;;;;;5040507;28;20041;-52
2023/07/26 00:59:21;;;;;;;7.13;3.83;;;;;;;;;;5040277;28;20050;-53
2023/07/26 01:01:48;;;;;;;7.70;2.92;;;;;;;;;;5040646;28;20025;-52
2023/07/26 01:04:14;;;;;;;5.15;2.40;;;;;;;;;;5040897;28;20031;-55
2023/07/26 01:06:41;;;;;;;5.97;2.58;;;;;;;;;;5040762;28;20045;-48
2023/07/26 01:09:11;;;;;;;6.78;3.55;;;;;;;;;;5040857;28;20317;-50
2023/07/26 01:11:41;;;;;;;8.85;4.07;;;;;;;;;;5040325;28;20229;-55
2023/07/26 01:14:07;;;;;;;12.07;4.80;;;;;;;;;;5040723;28;20026;-52
2023/07/26 01:16:35;;;;;;;10.38;5.07;;;;;;;;;;5040495;28;20022;-50
2023/07/26 01:19:01;;;;;;;10.60;4.93;;;;;;;;;;5040584;28;20241;-53
2023/07/26 01:21:32;;;;;;;9.48;4.43;;;;;;;;;;5040470;28;20034;-51
2023/07/26 01:23:59;;;;;;;11.85;4.90;;;;;;;;;;5041466;28;20017;-55
2023/07/26 01:26:26;;;;;;;10.18;4.15;;;;;;;;;;5043797;28;20040;-53
2023/07/26 01:28:52;;;;;;;10.27;4.57;;;;;;;;;;5045460;28;20395;-54
2023/07/26 01:31:21;;;;;;;11.18;4.93;;;;;;;;;;5044897;28;20018;-54
2023/07/26 01:33:51;;;;;;;9.50;4.80;;;;;;;;;;5044820;28;20037;-53
2023/07/26 01:36:20;;;;;;;8.73;4.05;;;;;;;;;;5045461;28;20037;-57
2023/07/26 01:38:47;;;;;;;6.35;3.33;;;;;;;;;;5045639;28;20034;-52
2023/07/26 01:41:23;;;;;;;7.07;3.50;;;;;;;;;;5046364;28;20094;-51
2023/07/26 01:43:51;;;;;;;9.07;2.90;;;;;;;;;;5027887;28;20275;-55
2023/07/26 01:46:17;;;;;;;12.38;3.17;;;;;;;;;;5044167;28;20301;-54
2023/07/26 01:48:44;;;;;;;5.85;3.38;;;;;;;;;;5043748;28;20026;-52
2023/07/26 01:51:11;;;;;;;7.95;3.58;;;;;;;;;;5044083;28;20301;-52
2023/07/26 01:53:37;;;;;;;9.35;3.65;;;;;;;;;;5043281;28;20405;-55
2023/07/26 01:56:04;;;;;;;12.23;4.32;;;;;;;;;;5043623;28;20039;-52
2023/07/26 01:58:31;;;;;;;8.27;4.05;;;;;;;;;;5043179;28;20272;-57
2023/07/26 02:00:59;;;;;;;12.50;3.90;;;;;;;;;;5043406;28;20090;-56
2023/07/26 02:03:26;;;;;;;8.15;3.30;;;;;;;;;;5043063;28;20030;-56
2023/07/26 02:05:55;;;;;;;10.75;3.40;;;;;;;;;;5042902;28;20020;-58
2023/07/26 02:08:21;;;;;;;8.27;3.67;;;;;;;;;;5043394;28;20096;-48
2023/07/26 02:10:48;;;;;;;8.82;4.00;;;;;;;;;;5043376;28;20302;-54
2023/07/26 02:13:15;;;;;;;15.93;4.30;;;;;;;;;;5043261;28;20025;-51
2023/07/26 02:15:41;;;;;;;6.80;3.30;;;;;;;;;;5043398;28;20033;-52
2023/07/26 02:18:08;;;;;;;7.30;3.42;;;;;;;;;;5043128;28;20049;-51
2023/07/26 02:20:35;;;;;;;9.52;3.65;;;;;;;;;;5042978;28;20079;-53
2023/07/26 02:23:02;;;;;;;27.20;5.80;;;;;;;;;;5025152;28;20057;-53
2023/07/26 02:25:29;;;;;;;37.55;5.78;;;;;;;;;;5042757;28;20070;-55
2023/07/26 02:27:56;;;;;;;20.40;4.20;;;;;;;;;;5042933;28;20106;-48
2023/07/26 02:30:23;;;;;;;11.40;3.47;;;;;;;;;;5042808;28;20033;-51
2023/07/26 02:32:49;;;;;;;16.10;3.70;;;;;;;;;;5025089;28;20049;-51
2023/07/26 02:35:16;;;;;;;10.15;3.47;;;;;;;;;;5042503;28;20021;-51
2023/07/26 02:37:43;;;;;;;9.43;2.83;;;;;;;;;;5024534;28;20052;-57
2023/07/26 02:40:10;;;;;;;12.13;3.08;;;;;;;;;;5042545;28;20022;-57
2023/07/26 02:42:39;;;;;;;9.48;2.80;;;;;;;;;;5042638;28;20021;-55
2023/07/26 02:45:08;;;;;;;7.55;2.60;;;;;;;;;;5042625;28;20037;-57
2023/07/26 02:47:38;;;;;;;7.45;2.28;;;;;;;;;;5042864;28;20309;-55
2023/07/26 02:50:04;;;;;;;6.63;2.40;;;;;;;;;;5025317;28;20085;-53
2023/07/26 02:52:42;;;;;;;4.72;2.03;;;;;;;;;;5042985;28;20070;-57
2023/07/26 02:55:14;;;;;;;5.15;1.90;;;;;;;;;;5042605;28;20040;-53
2023/07/26 02:57:41;;;;;;;4.72;2.10;;;;;;;;;;5042133;28;20046;-52
2023/07/26 03:00:08;;;;;;;12.52;2.00;;;;;;;;;;5041983;28;20052;-59
2023/07/26 03:02:34;;;;;;;7.95;1.95;;;;;;;;;;5042543;28;20029;-58
2023/07/26 03:05:04;;;;;;;7.68;1.83;;;;;;;;;;5042348;28;20329;-52
2023/07/26 03:07:31;;;;;;;5.93;1.70;;;;;;;;;;5042312;28;20211;-55
2023/07/26 03:09:57;;;;;;;5.72;1.58;;;;;;;;;;5042390;28;20033;-60
2023/07/26 03:12:24;;;;;;;4.10;1.48;;;;;;;;;;5042270;28;20029;-55
2023/07/26 03:14:51;;;;;;;8.60;1.60;;;;;;;;;;5042071;28;20033;-53
2023/07/26 03:17:20;;;;;;;7.35;1.60;;;;;;;;;;5042299;28;20029;-60
2023/07/26 03:19:48;;;;;;;4.78;1.60;;;;;;;;;;5024446;28;20040;-57
2023/07/26 03:22:17;;;;;;;5.07;1.65;;;;;;;;;;5041932;28;20067;-53
2023/07/26 03:24:44;;;;;;;7.95;1.88;;;;;;;;;;5042297;28;20302;-58
2023/07/26 03:27:13;;;;;;;14.95;2.17;;;;;;;;;;5041855;28;20089;-58
2023/07/26 03:29:43;;;;;;;6.70;1.70;;;;;;;;;;5042308;28;20034;-51
2023/07/26 03:32:11;;;;;;;6.18;1.90;;;;;;;;;;5041954;28;20025;-54
2023/07/26 03:34:37;;;;;;;8.48;2.20;;;;;;;;;;5042142;28;20029;-52
2023/07/26 03:37:07;;;;;;;5.63;1.73;;;;;;;;;;5041857;28;20281;-56
2023/07/26 03:39:34;;;;;;;4.50;2.10;;;;;;;;;;5041842;28;20110;-53
2023/07/26 03:42:01;;;;;;;5.97;1.90;;;;;;;;;;5041479;28;20045;-53
2023/07/26 03:44:28;;;;;;;8.50;1.88;;;;;;;;;;5041743;28;20025;-53
2023/07/26 03:46:54;;;;;;;4.55;1.83;;;;;;;;;;5041956;28;20093;-53
2023/07/26 03:49:21;;;;;;;6.38;2.13;;;;;;;;;;5040661;28;20026;-53
2023/07/26 03:51:48;;;;;;;5.22;2.13;;;;;;;;;;5042095;28;20053;-53
2023/07/26 03:54:17;;;;;;;5.95;2.17;;;;;;;;;;5041652;28;20073;-58
2023/07/26 03:56:44;;;;;;;7.55;2.13;;;;;;;;;;5023961;28;20064;-56
2023/07/26 03:59:10;;;;;;;4.68;2.08;;;;;;;;;;5041301;28;20054;-53
2023/07/26 04:01:38;;;;;;;6.07;2.13;;;;;;;;;;5041320;28;20017;-53
2023/07/26 04:04:05;;;;;;;8.40;2.20;;;;;;;;;;5041301;28;20268;-54
2023/07/26 04:06:32;;;;;;;6.10;2.20;;;;;;;;;;5041341;28;20056;-59
2023/07/26 04:09:01;;;;;;;8.98;2.20;;;;;;;;;;5023519;28;20214;-57
2023/07/26 04:11:27;;;;;;;7.90;2.00;;;;;;;;;;5041295;28;20038;-52
2023/07/26 04:13:54;;;;;;;5.80;2.13;;;;;;;;;;5041592;28;20067;-55
2023/07/26 04:16:21;;;;;;;6.57;2.50;;;;;;;;;;5041321;28;20060;-54
2023/07/26 04:18:48;;;;;;;7.43;2.40;;;;;;;;;;5041148;28;20100;-54
2023/07/26 04:21:16;;;;;;;6.00;2.30;;;;;;;;;;5041051;28;20043;-53
2023/07/26 04:23:43;;;;;;;6.80;2.40;;;;;;;;;;5023502;28;20025;-58
2023/07/26 04:26:09;;;;;;;6.03;2.08;;;;;;;;;;5041594;28;20033;-53
2023/07/26 04:28:36;;;;;;;6.85;2.00;;;;;;;;;;5041398;28;20097;-57
2023/07/26 04:31:03;;;;;;;6.55;1.80;;;;;;;;;;5041682;28;20018;-55
2023/07/26 04:33:31;;;;;;;4.53;1.80;;;;;;;;;;5041623;28;20042;-50
2023/07/26 04:35:58;;;;;;;7.82;1.80;;;;;;;;;;5041877;28;20040;-53
2023/07/26 04:38:27;;;;;;;6.10;1.63;;;;;;;;;;5040940;28;20021;-54
2023/07/26 04:40:53;;;;;;;8.40;1.48;;;;;;;;;;5041500;28;20029;-54
2023/07/26 04:43:20;;;;;;;7.07;1.67;;;;;;;;;;5040762;28;20030;-55
2023/07/26 04:45:50;;;;;;;5.05;1.48;;;;;;;;;;5041578;28;20018;-53
2023/07/26 04:48:18;;;;;;;9.18;2.25;;;;;;;;;;5041301;28;20030;-52
2023/07/26 04:50:46;;;;;;;8.32;2.05;;;;;;;;;;5041418;28;20036;-56
2023/07/26 04:53:12;;;;;;;7.15;1.80;;;;;;;;;;5041281;28;20022;-53
2023/07/26 04:55:46;;;;;;;5.65;2.03;;;;;;;;;;5041489;28;20033;-54
2023/07/26 04:58:13;;;;;;;4.88;1.48;;;;;;;;;;5040943;28;20113;-59
2023/07/26 05:00:40;;;;;;;4.65;1.60;;;;;;;;;;5044017;28;20038;-57
2023/07/26 05:03:07;;;;;;;5.38;1.33;;;;;;;;;;5044472;28;20337;-56
2023/07/26 05:05:34;;;;;;;4.65;1.48;;;;;;;;;;5044388;28;20017;-58
2023/07/26 05:08:02;;;;;;;5.72;1.63;;;;;;;;;;5044573;28;20037;-57
2023/07/26 05:10:32;;;;;;;7.70;1.75;;;;;;;;;;5044888;28;20321;-52
2023/07/26 05:12:59;;;;;;;4.80;1.45;;;;;;;;;;5044534;28;20029;-59
2023/07/26 05:15:26;;;;;;;6.90;1.70;;;;;;;;;;5044702;28;20029;-59
2023/07/26 05:17:52;;;;;;;6.40;1.50;;;;;;;;;;5044074;28;20044;-54
2023/07/26 05:20:19;;;;;;;6.30;1.45;;;;;;;;;;5044318;28;20059;-53
2023/07/26 05:22:46;;;;;;;3.85;1.30;;;;;;;;;;5043849;28;20033;-53
2023/07/26 05:25:12;;;;;;;4.35;1.20;;;;;;;;;;5044255;28;20372;-53
2023/07/26 05:27:39;;;;;;;5.82;1.33;;;;;;;;;;5044459;28;20017;-58
2023/07/26 05:30:06;;;;;;;5.20;1.40;;;;;;;;;;5044580;28;20056;-58
2023/07/26 05:32:33;;;;;;;4.88;1.52;;;;;;;;;;5044292;28;20030;-52
2023/07/26 05:34:59;;;;;;;6.05;1.48;;;;;;;;;;5044333;28;20026;-54
2023/07/26 05:37:26;;;;;;;5.00;1.45;;;;;;;;;;5043801;28;20037;-55
2023/07/26 05:39:53;;;;;;;4.88;1.30;;;;;;;;;;5044055;28;20034;-54
2023/07/26 05:42:20;;;;;;;3.88;1.35;;;;;;;;;;5043717;28;20334;-56
2023/07/26 05:44:46;;;;;;;6.53;1.88;;;;;;;;;;5044415;28;20040;-56
2023/07/26 05:47:14;;;;;;;8.02;1.70;;;;;;;;;;5043943;28;20067;-55
2023/07/26 05:49:45;;;;;;;6.80;1.60;;;;;;;;;;5043677;28;20110;-53
2023/07/26 05:52:11;;;;;;;6.28;1.60;;;;;;;;;;5043935;28;20083;-55
2023/07/26 05:54:38;;;;;;;8.50;1.30;;;;;;;;;;5043949;28;20093;-57
2023/07/26 05:57:05;;;;;;;5.50;1.83;;;;;;;;;;5043895;28;20033;-53
2023/07/26 05:59:31;;;;;;;9.10;2.03;;;;;;;;;;5043999;28;20115;-59
2023/07/26 06:01:58;;;;;;;6.22;1.80;;;;;;;;;;5043570;28;20030;-57
2023/07/26 06:04:25;;;;;;;18.60;2.08;;;;;;;;;;5044078;28;20022;-54
2023/07/26 06:06:52;;;;;;;9.10;1.63;;;;;;;;;;5043552;28;20031;-54
2023/07/26 06:09:21;;;;;;;4.05;1.65;;;;;;;;;;5043640;28;20238;-55
2023/07/26 06:11:47;;;;;;;5.20;1.80;;;;;;;;;;5042901;28;20203;-57
2023/07/26 06:14:14;;;;;;;5.70;1.50;;;;;;;;;;5043818;28;20284;-57
2023/07/26 06:16:41;;;;;;;5.97;1.70;;;;;;;;;;5043821;28;20363;-55
2023/07/26 06:19:08;;;;;;;4.10;1.30;;;;;;;;;;5043777;28;20381;-55
2023/07/26 06:21:35;;;;;;;6.55;1.50;;;;;;;;;;5043148;28;20044;-62
2023/07/26 06:24:01;;;;;;;6.80;1.77;;;;;;;;;;5043376;28;20086;-52
2023/07/26 06:26:28;;;;;;;4.53;1.30;;;;;;;;;;5043482;28;20083;-56
2023/07/26 06:28:55;;;;;;;4.95;1.60;;;;;;;;;;5043498;28;20047;-54
2023/07/26 06:31:21;;;;;;;4.85;1.58;;;;;;;;;;5043440;28;20089;-54
2023/07/26 06:33:48;;;;;;;17.33;2.13;;;;;;;;;;5044035;28;20271;-54
2023/07/26 06:36:15;;;;;;;4.15;1.60;;;;;;;;;;5051224;28;20101;-51
2023/07/26 06:38:41;;;;;;;4.60;1.35;;;;;;;;;;5040229;28;20033;-50
2023/07/26 06:41:08;;;;;;;7.68;1.60;;;;;;;;;;5053619;28;20017;-54
2023/07/26 06:43:35;;;;;;;8.35;1.67;;;;;;;;;;5025047;28;20113;-54
2023/07/26 06:46:02;;;;;;;7.07;1.98;;;;;;;;;;5023439;28;20305;-51
2023/07/26 06:48:29;;;;;;;6.10;1.65;;;;;;;;;;5022622;28;20022;-49
2023/07/26 06:50:55;;;;;;;6.15;2.00;;;;;;;;;;5026817;28;20064;-45
2023/07/26 06:53:22;;;;;;;9.93;2.17;;;;;;;;;;5052592;28;20030;-54
2023/07/26 06:55:49;;;;;;;12.00;2.13;;;;;;;;;;5042294;28;20229;-53
2023/07/26 06:58:15;;;;;;;6.05;1.92;;;;;;;;;;5043015;28;20070;-58
2023/07/26 07:00:42;;;;;;;8.02;2.15;;;;;;;;;;5042485;28;20119;-56
2023/07/26 07:03:08;;;;;;;6.32;2.00;;;;;;;;;;5042021;28;20026;-60
2023/07/26 07:05:35;;;;;;;7.17;1.93;;;;;;;;;;5042514;28;20037;-58
2023/07/26 07:08:02;;;;;;;7.72;2.00;;;;;;;;;;5042017;28;20033;-59
2023/07/26 07:10:29;;;;;;;10.90;1.95;;;;;;;;;;5042158;28;20017;-57
2023/07/26 07:12:55;;;;;;;7.53;1.90;;;;;;;;;;5041964;28;20061;-57
2023/07/26 07:15:22;;;;;;;5.30;2.25;;;;;;;;;;5042192;28;20040;-54
2023/07/26 07:17:49;;;;;;;4.95;1.83;;;;;;;;;;5041790;28;20329;-49
2023/07/26 07:20:15;;;;;;;7.30;1.90;;;;;;;;;;5041761;28;20029;-47
2023/07/26 07:22:42;;;;;;;7.57;1.98;;;;;;;;;;5041652;28;20038;-43
2023/07/26 07:25:09;;;;;;;10.25;2.17;;;;;;;;;;5041866;28;20052;-53
2023/07/26 07:27:36;;;;;;;8.52;2.20;;;;;;;;;;5042070;28;20048;-49
2023/07/26 07:30:03;;;;;;;7.82;2.40;;;;;;;;;;5041260;28;20251;-55
2023/07/26 07:32:29;;;;;;;8.05;2.05;;;;;;;;;;5041525;28;20021;-53
2023/07/26 07:34:56;;;;;;;5.32;2.15;;;;;;;;;;5041811;28;20046;-50
2023/07/26 07:37:23;;;;;;;4.90;1.80;;;;;;;;;;5041607;28;20042;-52
2023/07/26 07:39:49;;;;;;;16.88;2.20;;;;;;;;;;5041637;28;20045;-53
2023/07/26 07:42:16;;;;;;;5.28;1.77;;;;;;;;;;5041604;28;20045;-59
2023/07/26 07:44:42;;;;;;;7.18;1.80;;;;;;;;;;5041626;28;20029;-60
2023/07/26 07:47:09;;;;;;;7.95;1.80;;;;;;;;;;5041384;28;20018;-54
2023/07/26 07:49:36;;;;;;;4.07;1.73;;;;;;;;;;5041391;28;20038;-49
2023/07/26 07:52:02;;;;;;;14.88;1.75;;;;;;;;;;5041379;28;20207;-55
2023/07/26 07:54:29;;;;;;;9.57;2.10;;;;;;;;;;5041453;28;20021;-54
2023/07/26 07:56:56;;;;;;;11.02;1.73;;;;;;;;;;5041081;28;20038;-49
2023/07/26 07:59:22;;;;;;;9.02;1.50;;;;;;;;;;5106772;27;20102;-63
2023/07/26 08:01:49;;;;;;;11.50;1.77;;;;;;;;;;5145187;27;20019;-54
2023/07/26 08:04:17;;;;;;;6.93;1.48;;;;;;;;;;5145150;27;20046;-52
2023/07/26 08:06:43;;;;;;;4.68;1.52;;;;;;;;;;5127234;27;20026;-53
2023/07/26 08:09:10;;;;;;;5.78;1.35;;;;;;;;;;5145337;27;20022;-51
2023/07/26 08:11:37;;;;;;;4.82;1.60;;;;;;;;;;5145099;27;20087;-51
2023/07/26 08:14:04;;;;;;;7.53;1.60;;;;;;;;;;5145129;27;20042;-50
2023/07/26 08:16:30;;;;;;;5.25;1.67;;;;;;;;;;5145188;27;20034;-44
2023/07/26 08:19:01;;;;;;;9.48;1.60;;;;;;;;;;5144964;27;20342;-55
2023/07/26 08:21:28;;;;;;;7.03;1.50;;;;;;;;;;5144981;28;20058;-49
2023/07/26 08:23:54;;;;;;;5.68;1.38;;;;;;;;;;5144760;28;20057;-48
2023/07/26 08:26:21;;;;;;;4.18;1.50;;;;;;;;;;5144817;28;20034;-53
2023/07/26 08:28:49;;;;;;;4.45;1.48;;;;;;;;;;5144776;28;20136;-48
2023/07/26 08:31:15;;;;;;;5.20;1.58;;;;;;;;;;5145023;28;20078;-49
2023/07/26 08:33:42;;;;;;;3.85;1.23;;;;;;;;;;5144873;27;20031;-47
2023/07/26 08:36:09;;;;;;;4.72;1.52;;;;;;;;;;5149567;27;20064;-44
2023/07/26 08:38:35;;;;;;;6.50;1.50;;;;;;;;;;5149295;27;20027;-54
2023/07/26 08:41:02;;;;;;;3.15;1.23;;;;;;;;;;5149381;27;20083;-45
2023/07/26 08:43:32;;;;;;;5.18;1.17;;;;;;;;;;5148946;27;20031;-44
2023/07/26 08:46:00;;;;;;;10.57;1.63;;;;;;;;;;5149383;27;20018;-56
2023/07/26 08:48:27;;;;;;;4.85;1.45;;;;;;;;;;5148811;27;20031;-54
2023/07/26 08:50:54;;;;;;;9.90;1.50;;;;;;;;;;5149449;27;20072;-54
2023/07/26 08:53:21;;;;;;;6.60;1.58;;;;;;;;;;5149020;27;20082;-54
2023/07/26 08:55:49;;;;;;;6.88;1.58;;;;;;;;;;5149157;27;20027;-54
2023/07/26 08:58:16;;;;;;;6.80;1.05;;;;;;;;;;5148483;27;20050;-56
2023/07/26 09:00:42;;;;;;;6.85;1.77;;;;;;;;;;5149087;27;20064;-53
2023/07/26 09:03:11;;;;;;;7.18;1.27;;;;;;;;;;5148666;27;20066;-53
2023/07/26 09:05:38;;;;;;;4.90;1.40;;;;;;;;;;5148496;27;20039;-58
2023/07/26 09:08:04;;;;;;;5.63;1.65;;;;;;;;;;5148784;27;20375;-54
2023/07/26 09:10:32;;;;;;;6.20;1.77;;;;;;;;;;5148847;27;20031;-55
2023/07/26 09:13:19;;;;;;;5.20;1.60;;;;;;;;;;5148573;27;20042;-50
2023/07/26 09:15:46;;;;;;;10.50;1.60;;;;;;;;;;5148759;27;20038;-61
2023/07/26 09:18:14;;;;;;;4.15;1.33;;;;;;;;;;5148460;27;20065;-53
2023/07/26 09:20:41;;;;;;;6.57;1.60;;;;;;;;;;5144847;27;20026;-54
2023/07/26 09:23:09;;;;;;;7.55;1.67;;;;;;;;;;5139116;27;20035;-49
2023/07/26 09:25:37;;;;;;;7.32;1.48;;;;;;;;;;5148908;27;20281;-56
2023/07/26 09:28:04;;;;;;;6.05;1.52;;;;;;;;;;5148223;27;20030;-48
2023/07/26 09:30:36;;;;;;;5.78;1.70;;;;;;;;;;5148315;27;20019;-48
2023/07/26 09:33:03;;;;;;;6.20;1.80;;;;;;;;;;5148037;27;20042;-50
2023/07/26 09:35:33;;;;;;;3.88;1.48;;;;;;;;;;5136110;27;20023;-53
2023/07/26 09:38:10;;;;;;;3.75;1.30;;;;;;;;;;5148011;27;20262;-53
2023/07/26 09:40:37;;;;;;;6.53;1.70;;;;;;;;;;5147798;27;20027;-55
2023/07/26 09:43:04;;;;;;;5.72;1.45;;;;;;;;;;5147645;27;20042;-58
2023/07/26 09:45:31;;;;;;;7.55;1.65;;;;;;;;;;5147462;27;20228;-51
2023/07/26 09:48:11;;;;;;;7.00;1.60;;;;;;;;;;5147435;27;20083;-50
2023/07/26 09:50:38;;;;;;;6.57;1.70;;;;;;;;;;5147578;27;20224;-54
2023/07/26 09:53:06;;;;;;;4.70;1.52;;;;;;;;;;5147779;27;20035;-50
2023/07/26 09:55:33;;;;;;;7.18;1.58;;;;;;;;;;5148131;27;20098;-46
2023/07/26 09:58:04;;;;;;;6.88;1.95;;;;;;;;;;5147452;27;20067;-51
2023/07/26 10:00:37;;;;;;;7.47;2.03;;;;;;;;;;5147878;27;20107;-60
2023/07/26 10:03:04;;;;;;;7.55;1.70;;;;;;;;;;5147476;27;20043;-51
2023/07/26 10:05:35;;;;;;;6.10;1.85;;;;;;;;;;5147925;27;20091;-56
2023/07/26 10:08:02;;;;;;;4.28;1.55;;;;;;;;;;5147505;27;20090;-53
2023/07/26 10:10:29;;;;;;;6.78;1.60;;;;;;;;;;5147710;27;20083;-50
2023/07/26 10:12:57;;;;;;;7.18;2.63;;;;;;;;;;5147400;27;20318;-55
2023/07/26 10:15:26;;;;;;;9.38;2.03;;;;;;;;;;5137054;27;20030;-52
2023/07/26 10:17:53;;;;;;;4.90;1.70;;;;;;;;;;5137572;27;20094;-52
2023/07/26 10:20:20;;;;;;;6.88;2.15;;;;;;;;;;5127069;28;20119;-59
2023/07/26 10:22:48;;;;;;;6.75;1.60;;;;;;;;;;5131901;27;20282;-53
2023/07/26 10:25:14;;;;;;;8.23;2.78;;;;;;;;;;5147096;27;20019;-55
2023/07/26 10:27:43;;;;;;;7.43;2.03;;;;;;;;;;5147139;27;20031;-51
2023/07/26 10:30:10;;;;;;;8.10;2.13;;;;;;;;;;5147331;27;20076;-56
2023/07/26 10:32:55;;;;;;;6.50;2.33;;;;;;;;;;5146885;27;20046;-50
2023/07/26 10:35:21;;;;;;;;;;;;;;;;;;5147130;27;20211;-54
2023/07/26 10:37:47;;;;;;;8.88;2.53;;;;;;;;;;5146747;27;20044;-56
2023/07/26 10:40:31;;;;;;;5.60;1.90;;;;;;;;;;5147365;27;20023;-55
2023/07/26 10:42:59;;;;;;;8.15;2.80;;;;;;;;;;5146726;27;20058;-55
2023/07/26 10:45:45;;;;;;;9.70;2.97;;;;;;;;;;5147176;27;20033;-59
2023/07/26 10:48:26;;;;;;;11.98;2.67;;;;;;;;;;5146752;27;20029;-56
2023/07/26 10:50:56;;;;;;;8.10;2.35;;;;;;;;;;5147079;27;20405;-56
2023/07/26 10:53:37;;;;;;;35.33;4.25;;;;;;;;;;5128281;27;20227;-57
2023/07/26 10:56:10;;;;;;;16.48;3.05;;;;;;;;;;5136301;27;20258;-58
2023/07/26 10:58:46;;;;;;;13.63;2.90;;;;;;;;;;5116754;27;20325;-59
2023/07/26 11:01:30;;;;;;;12.20;3.03;;;;;;;;;;5057453;28;20117;-55
2023/07/26 11:04:00;;;;;;;11.35;3.20;;;;;;;;;;5046418;28;20314;-56
2023/07/26 11:06:45;;;;;;;10.07;4.07;;;;;;;;;;5062489;28;20045;-57
2023/07/26 11:09:28;;;;;;;15.70;4.70;;;;;;;;;;5061964;28;20025;-57
2023/07/26 11:11:57;;;;;;;9.80;4.47;;;;;;;;;;5061874;28;20091;-59
2023/07/26 11:14:25;;;;;;;11.32;4.68;;;;;;;;;;5061997;28;20041;-59
2023/07/26 11:16:52;;;;;;;6.93;3.10;;;;;;;;;;5061647;28;20032;-48
2023/07/26 11:19:19;;;;;;;8.82;3.80;;;;;;;;;;5061921;28;20028;-48
2023/07/26 11:21:45;;;;;;;9.18;3.65;;;;;;;;;;5061736;28;20048;-55
2023/07/26 11:24:12;;;;;;;11.45;4.03;;;;;;;;;;5061525;28;20036;-54
2023/07/26 11:26:45;;;;;;;6.97;2.70;;;;;;;;;;5062121;28;20205;-53
2023/07/26 11:29:12;;;;;;;12.60;3.58;;;;;;;;;;5060698;28;20032;-44
2023/07/26 11:31:39;;;;;;;11.10;3.35;;;;;;;;;;5051490;28;20029;-47
2023/07/26 11:34:16;;;;;;;7.60;2.80;;;;;;;;;;5041588;28;20034;-46
2023/07/26 11:36:44;;;;;;;7.93;2.92;;;;;;;;;;5041576;28;20113;-53
2023/07/26 11:39:23;;;;;;;12.63;2.97;;;;;;;;;;5041466;28;20207;-55
2023/07/26 11:41:53;;;;;;;13.88;3.38;;;;;;;;;;5041782;28;20271;-51
2023/07/26 11:44:21;;;;;;;7.30;2.40;;;;;;;;;;5041818;28;20037;-53
2023/07/26 11:46:49;;;;;;;8.65;2.80;;;;;;;;;;5041485;28;20209;-56
2023/07/26 11:49:22;;;;;;;6.97;2.60;;;;;;;;;;5041743;28;20029;-56
2023/07/26 11:51:49;;;;;;;10.23;2.70;;;;;;;;;;5047622;28;20037;-51
2023/07/26 11:54:17;;;;;;;7.13;2.55;;;;;;;;;;5047147;28;20033;-50
2023/07/26 11:56:43;;;;;;;6.28;2.22;;;;;;;;;;5041114;28;20037;-50
2023/07/26 11:59:11;;;;;;;6.65;1.80;;;;;;;;;;5097727;27;20042;-52
2023/07/26 12:01:38;;;;;;;7.82;2.17;;;;;;;;;;5145537;27;20027;-54
2023/07/26 12:04:12;;;;;;;8.85;2.08;;;;;;;;;;5145017;27;20211;-49
2023/07/26 12:06:40;;;;;;;6.82;1.85;;;;;;;;;;5132713;27;20070;-57
2023/07/26 12:09:10;;;;;;;7.55;1.90;;;;;;;;;;5144665;27;20068;-58
2023/07/26 15:20:02;;;;;;;10.77;2.00;;;;;;;;;;5101319;28;20402;-50
2023/07/26 15:22:29;;;;;;;46.17;3.35;;;;;;;;;;5101392;28;20032;-50
2023/07/26 15:24:56;;;;;;;4.00;2.10;;;;;;;;;;5099766;28;20027;-50
2023/07/26 15:27:23;;;;;;;5.50;2.17;;;;;;;;;;5089432;28;20024;-50
2023/07/26 15:29:50;;;;;;;8.50;2.10;;;;;;;;;;5100109;28;20033;-58
2023/07/26 15:32:17;;;;;;;3.47;1.77;;;;;;;;;;5100685;28;20201;-50
2023/07/26 15:34:43;;;;;;;5.28;2.25;;;;;;;;;;5094531;28;20070;-51
2023/07/26 15:37:10;;;;;;;21.15;2.28;;;;;;;;;;5100705;28;20093;-52
2023/07/26 15:39:36;;;;;;;6.18;2.05;;;;;;;;;;5100962;28;20047;-55
2023/07/26 15:42:03;;;;;;;3.63;2.13;;;;;;;;;;5100582;28;20207;-52
2023/07/26 15:44:30;;;;;;;4.82;2.00;;;;;;;;;;5096712;28;20070;-52
2023/07/26 15:46:57;;;;;;;5.50;1.90;;;;;;;;;;5098861;28;20417;-52
2023/07/26 15:49:24;;;;;;;4.50;1.90;;;;;;;;;;5101271;28;20054;-50
2023/07/26 15:51:50;;;;;;;5.82;2.50;;;;;;;;;;5097802;28;20020;-51
2023/07/26 15:54:17;;;;;;;5.13;1.80;;;;;;;;;;5100641;28;20028;-47
2023/07/26 15:56:44;;;;;;;3.83;2.08;;;;;;;;;;5091501;28;20212;-45
2023/07/26 15:59:11;;;;;;;8.25;2.50;;;;;;;;;;5084105;28;20031;-51
2023/07/26 16:01:37;;;;;;;7.72;2.75;;;;;;;;;;5079105;28;20013;-49
2023/07/26 16:04:04;;;;;;;21.55;2.88;;;;;;;;;;5078643;28;20385;-47
2023/07/26 16:06:31;;;;;;;6.30;1.75;;;;;;;;;;5080425;28;20024;-49
2023/07/26 16:08:58;;;;;;;5.85;2.05;;;;;;;;;;5088797;28;20127;-50
2023/07/26 16:11:25;;;;;;;6.45;2.28;;;;;;;;;;5086350;28;20017;-52
2023/07/26 16:13:51;;;;;;;8.18;2.42;;;;;;;;;;5100464;28;20032;-51
2023/07/26 16:16:18;;;;;;;4.93;2.42;;;;;;;;;;5096932;28;20008;-49
2023/07/26 16:18:45;;;;;;;28.20;3.00;;;;;;;;;;5093468;28;20068;-52
2023/07/26 16:21:11;;;;;;;11.82;2.38;;;;;;;;;;5086574;28;20320;-53
2023/07/26 16:23:38;;;;;;;7.85;2.47;;;;;;;;;;5087105;28;20251;-50
2023/07/26 16:26:05;;;;;;;4.82;1.65;;;;;;;;;;5086586;28;20326;-53
2023/07/26 16:28:31;;;;;;;7.13;2.40;;;;;;;;;;5080114;28;20259;-51
2023/07/26 16:30:58;;;;;;;5.72;2.05;;;;;;;;;;5066269;28;20274;-57
2023/07/26 16:33:28;;;;;;;7.38;2.10;;;;;;;;;;5087001;28;20170;-56
2023/07/26 16:35:55;;;;;;;6.65;2.13;;;;;;;;;;5086294;28;20033;-52
2023/07/26 16:38:22;;;;;;;7.35;2.30;;;;;;;;;;5085237;28;20135;-51
2023/07/26 16:40:48;;;;;;;8.25;2.17;;;;;;;;;;5086638;28;20016;-51
2023/07/26 16:43:15;;;;;;;28.67;3.70;;;;;;;;;;5086069;28;20043;-53
2023/07/26 16:45:42;;;;;;;9.55;2.10;;;;;;;;;;5082181;28;20049;-51
2023/07/26 16:48:08;;;;;;;5.82;1.90;;;;;;;;;;5077100;28;20096;-50
2023/07/26 16:50:36;;;;;;;5.25;1.88;;;;;;;;;;5086030;28;20028;-49
2023/07/26 16:53:03;;;;;;;21.33;2.72;;;;;;;;;;5086333;28;20028;-50
2023/07/26 16:55:30;;;;;;;27.88;2.90;;;;;;;;;;5080963;28;20048;-51
2023/07/26 16:57:56;;;;;;;8.45;2.72;;;;;;;;;;5084644;28;20032;-51
2023/07/26 17:00:23;;;;;;;6.68;2.30;;;;;;;;;;5085942;28;20021;-49
2023/07/26 17:02:52;;;;;;;7.70;2.25;;;;;;;;;;5083137;28;20100;-56
2023/07/26 17:05:19;;;;;;;8.30;1.92;;;;;;;;;;5048271;28;20286;-51
2023/07/26 17:07:45;;;;;;;6.88;2.40;;;;;;;;;;5065807;28;20028;-51
2023/07/26 17:10:12;;;;;;;9.65;2.20;;;;;;;;;;5065803;28;20021;-50
2023/07/26 17:12:38;;;;;;;9.70;2.42;;;;;;;;;;5065461;28;20033;-48
2023/07/26 17:15:05;;;;;;;9.32;2.50;;;;;;;;;;5077994;28;20020;-47
2023/07/26 17:17:33;;;;;;;19.98;3.25;;;;;;;;;;5085978;28;20339;-46
2023/07/26 17:19:59;;;;;;;6.20;2.10;;;;;;;;;;5064709;28;20047;-48
2023/07/26 17:22:26;;;;;;;9.60;2.60;;;;;;;;;;5064026;28;20036;-51
2023/07/26 17:24:53;;;;;;;7.93;2.17;;;;;;;;;;5064316;28;20201;-50
2023/07/26 17:27:19;;;;;;;8.07;2.83;;;;;;;;;;5064229;28;20033;-46
2023/07/26 17:29:46;;;;;;;7.90;2.60;;;;;;;;;;5064033;28;20241;-51
2023/07/26 17:32:13;;;;;;;8.15;2.40;;;;;;;;;;5064737;28;20024;-46
2023/07/26 17:34:39;;;;;;;4.65;1.98;;;;;;;;;;5065043;28;20032;-54
2023/07/26 17:37:06;;;;;;;6.50;2.08;;;;;;;;;;5065004;28;20084;-51
2023/07/26 17:39:33;;;;;;;6.40;2.53;;;;;;;;;;5065459;28;20017;-50
2023/07/26 17:41:59;;;;;;;6.65;2.80;;;;;;;;;;5065014;28;20040;-47
2023/07/26 17:44:26;;;;;;;5.43;2.40;;;;;;;;;;5065549;28;20040;-51
2023/07/26 17:46:53;;;;;;;5.47;2.63;;;;;;;;;;5065032;28;20062;-49
2023/07/26 17:49:19;;;;;;;5.63;2.38;;;;;;;;;;5065424;28;20029;-46
2023/07/26 17:51:46;;;;;;;9.57;2.30;;;;;;;;;;5064759;28;20013;-48